Latest METARs, TAFs and NOTAMs for TBPB


---------------------------------------------------------------------------
	(OBSERVATIONS)
TBPB 230400Z 08014KT 9999 SCT020 26/21 Q1013 NOSIG=
TBPB 230300Z 08017KT 9999 SCT020 26/21 Q1013 NOSIG=
TBPB 230200Z 08017KT 9999 SCT020 26/21 Q1013 NOSIG=
---------------------------------------------------------------------------
	(TERMINAL AREA FORECAST)
TBPB 230400Z 2306/2406 NIL=
---------------------------------------------------------------------------
	(NOTAMS)


TBPB A0067/18 ILS LLZ 'IBGI' 110.10MHZ RWY09 U/S. 19 JAN 19:35
    2018 UNTIL 09 FEB 20:30 2018. CREATED: 19 JAN 19:36 2018

---------------------------------------------------------------------------